sensor_id;sensor_type;location;lat;lon;timestamp;pressure;altitude;pressure_sealevel;temperature;humidity
67840;BME280;54636;51.684;5.142;2023-03-22T00:02:04;101000.75;;;8.25;100.00
67840;BME280;54636;51.684;5.142;2023-03-22T00:04:29;101003.91;;;8.23;100.00
67840;BME280;54636;51.684;5.142;2023-03-22T00:06:55;100990.44;;;8.14;100.00
67840;BME280;54636;51.684;5.142;2023-03-22T00:09:20;101000.16;;;8.21;100.00
67840;BME280;54636;51.684;5.142;2023-03-22T00:11:46;100970.38;;;7.97;100.00
67840;BME280;54636;51.684;5.142;2023-03-22T00:14:16;100979.78;;;8.11;100.00
67840;BME280;54636;51.684;5.142;2023-03-22T00:16:41;100969.63;;;7.97;100.00
67840;BME280;54636;51.684;5.142;2023-03-22T00:19:06;100973.97;;;7.94;100.00
67840;BME280;54636;51.684;5.142;2023-03-22T00:21:32;100983.13;;;7.97;100.00
67840;BME280;54636;51.684;5.142;2023-03-22T00:23:57;100966.38;;;7.83;100.00
67840;BME280;54636;51.684;5.142;2023-03-22T00:26:23;100978.38;;;7.82;100.00
67840;BME280;54636;51.684;5.142;2023-03-22T00:28:48;100972.34;;;7.87;100.00
67840;BME280;54636;51.684;5.142;2023-03-22T00:31:13;100958.78;;;7.73;100.00
67840;BME280;54636;51.684;5.142;2023-03-22T00:33:39;100961.16;;;7.80;100.00
67840;BME280;54636;51.684;5.142;2023-03-22T00:36:09;100956.47;;;7.80;100.00
67840;BME280;54636;51.684;5.142;2023-03-22T00:38:36;100946.47;;;7.72;100.00
67840;BME280;54636;51.684;5.142;2023-03-22T00:41:07;100951.53;;;7.79;100.00
67840;BME280;54636;51.684;5.142;2023-03-22T00:43:33;100951.81;;;7.81;100.00
67840;BME280;54636;51.684;5.142;2023-03-22T00:45:59;100940.44;;;7.77;100.00
67840;BME280;54636;51.684;5.142;2023-03-22T00:48:24;100940.88;;;7.75;100.00
67840;BME280;54636;51.684;5.142;2023-03-22T00:50:50;100933.09;;;7.68;100.00
67840;BME280;54636;51.684;5.142;2023-03-22T00:53:15;100938.63;;;7.74;100.00
67840;BME280;54636;51.684;5.142;2023-03-22T00:55:41;100930.06;;;7.75;100.00
67840;BME280;54636;51.684;5.142;2023-03-22T00:58:06;100889.94;;;7.41;100.00
67840;BME280;54636;51.684;5.142;2023-03-22T01:00:31;100932.03;;;7.75;100.00
67840;BME280;54636;51.684;5.142;2023-03-22T01:02:58;100923.78;;;7.69;100.00
67840;BME280;54636;51.684;5.142;2023-03-22T01:05:24;100913.38;;;7.77;100.00
67840;BME280;54636;51.684;5.142;2023-03-22T01:07:50;100914.44;;;7.79;100.00
67840;BME280;54636;51.684;5.142;2023-03-22T01:10:16;100906.38;;;7.94;100.00
67840;BME280;54636;51.684;5.142;2023-03-22T01:12:43;100885.06;;;7.87;100.00
67840;BME280;54636;51.684;5.142;2023-03-22T01:15:09;100896.88;;;7.99;100.00
67840;BME280;54636;51.684;5.142;2023-03-22T01:17:34;100889.81;;;8.01;100.00
67840;BME280;54636;51.684;5.142;2023-03-22T01:20:00;100885.44;;;8.04;100.00
67840;BME280;54636;51.684;5.142;2023-03-22T01:22:26;100878.41;;;7.97;100.00
67840;BME280;54636;51.684;5.142;2023-03-22T01:24:51;100883.63;;;8.01;100.00
67840;BME280;54636;51.684;5.142;2023-03-22T01:27:17;100871.78;;;7.98;100.00
67840;BME280;54636;51.684;5.142;2023-03-22T01:29:42;100863.22;;;8.00;100.00
67840;BME280;54636;51.684;5.142;2023-03-22T01:32:08;100849.75;;;7.90;100.00
67840;BME280;54636;51.684;5.142;2023-03-22T01:34:33;100858.66;;;8.06;100.00
67840;BME280;54636;51.684;5.142;2023-03-22T01:36:58;100847.56;;;8.04;100.00
67840;BME280;54636;51.684;5.142;2023-03-22T01:39:24;100844.38;;;8.05;100.00
67840;BME280;54636;51.684;5.142;2023-03-22T01:41:50;100839.66;;;8.15;100.00
67840;BME280;54636;51.684;5.142;2023-03-22T01:44:18;100843.97;;;8.21;100.00
67840;BME280;54636;51.684;5.142;2023-03-22T01:46:46;100840.91;;;8.29;100.00
67840;BME280;54636;51.684;5.142;2023-03-22T01:49:23;100828.72;;;8.33;100.00
67840;BME280;54636;51.684;5.142;2023-03-22T01:51:51;100817.72;;;8.37;100.00
67840;BME280;54636;51.684;5.142;2023-03-22T01:56:49;100800.28;;;8.38;100.00
67840;BME280;54636;51.684;5.142;2023-03-22T01:59:14;100810.91;;;8.56;100.00
67840;BME280;54636;51.684;5.142;2023-03-22T02:01:40;100790.00;;;8.42;100.00
67840;BME280;54636;51.684;5.142;2023-03-22T02:04:18;100801.22;;;8.64;100.00
67840;BME280;54636;51.684;5.142;2023-03-22T02:06:49;100802.97;;;8.67;100.00
67840;BME280;54636;51.684;5.142;2023-03-22T02:09:15;100790.38;;;8.64;100.00
67840;BME280;54636;51.684;5.142;2023-03-22T02:11:48;100799.44;;;8.76;100.00
67840;BME280;54636;51.684;5.142;2023-03-22T02:17:06;100782.81;;;8.83;100.00
67840;BME280;54636;51.684;5.142;2023-03-22T02:20:33;100791.94;;;9.00;100.00
67840;BME280;54636;51.684;5.142;2023-03-22T02:39:18;100778.75;;;9.43;100.00
67840;BME280;54636;51.684;5.142;2023-03-22T02:49:48;100761.41;;;9.55;100.00
67840;BME280;54636;51.684;5.142;2023-03-22T02:52:18;100764.41;;;9.57;100.00
67840;BME280;54636;51.684;5.142;2023-03-22T02:57:37;100753.53;;;9.57;100.00
67840;BME280;54636;51.684;5.142;2023-03-22T03:00:07;100742.34;;;9.49;100.00
67840;BME280;54636;51.684;5.142;2023-03-22T03:02:39;100739.19;;;9.51;100.00
67840;BME280;54636;51.684;5.142;2023-03-22T03:05:07;100744.59;;;9.51;100.00
67840;BME280;54636;51.684;5.142;2023-03-22T03:07:33;100721.47;;;9.55;100.00
67840;BME280;54636;51.684;5.142;2023-03-22T03:09:59;100739.78;;;9.61;100.00
67840;BME280;54636;51.684;5.142;2023-03-22T03:12:26;100738.69;;;9.52;100.00
67840;BME280;54636;51.684;5.142;2023-03-22T03:14:52;100734.91;;;9.65;100.00
67840;BME280;54636;51.684;5.142;2023-03-22T03:19:58;100740.06;;;9.63;100.00
67840;BME280;54636;51.684;5.142;2023-03-22T03:25:27;100740.06;;;9.63;100.00
67840;BME280;54636;51.684;5.142;2023-03-22T03:30:48;100743.09;;;9.50;100.00
67840;BME280;54636;51.684;5.142;2023-03-22T03:33:18;100737.53;;;9.39;100.00
67840;BME280;54636;51.684;5.142;2023-03-22T03:35:49;100749.66;;;9.43;100.00
67840;BME280;54636;51.684;5.142;2023-03-22T03:38:24;100745.03;;;9.29;100.00
67840;BME280;54636;51.684;5.142;2023-03-22T03:41:13;100747.09;;;9.34;100.00
67840;BME280;54636;51.684;5.142;2023-03-22T03:43:41;100746.47;;;9.24;100.00
67840;BME280;54636;51.684;5.142;2023-03-22T03:46:07;100744.88;;;9.18;100.00
67840;BME280;54636;51.684;5.142;2023-03-22T03:48:35;100741.31;;;9.06;100.00
67840;BME280;54636;51.684;5.142;2023-03-22T03:51:02;100755.94;;;9.14;100.00
67840;BME280;54636;51.684;5.142;2023-03-22T03:53:28;100753.78;;;9.18;100.00
67840;BME280;54636;51.684;5.142;2023-03-22T03:55:54;100744.53;;;9.10;100.00
67840;BME280;54636;51.684;5.142;2023-03-22T03:58:20;100723.59;;;8.90;100.00
67840;BME280;54636;51.684;5.142;2023-03-22T04:00:49;100745.03;;;9.09;100.00
67840;BME280;54636;51.684;5.142;2023-03-22T04:03:15;100717.63;;;8.86;100.00
67840;BME280;54636;51.684;5.142;2023-03-22T04:05:41;100721.53;;;8.85;100.00
67840;BME280;54636;51.684;5.142;2023-03-22T04:08:07;100743.38;;;8.97;100.00
67840;BME280;54636;51.684;5.142;2023-03-22T04:10:33;100743.66;;;8.99;100.00
67840;BME280;54636;51.684;5.142;2023-03-22T04:12:58;100746.38;;;8.99;100.00
67840;BME280;54636;51.684;5.142;2023-03-22T04:15:24;100752.34;;;8.88;100.00
67840;BME280;54636;51.684;5.142;2023-03-22T04:17:49;100743.22;;;8.85;100.00
67840;BME280;54636;51.684;5.142;2023-03-22T04:20:15;100735.19;;;8.76;100.00
67840;BME280;54636;51.684;5.142;2023-03-22T04:22:41;100717.75;;;8.63;100.00
67840;BME280;54636;51.684;5.142;2023-03-22T04:25:09;100714.19;;;8.56;100.00
67840;BME280;54636;51.684;5.142;2023-03-22T04:27:37;100720.91;;;8.61;100.00
67840;BME280;54636;51.684;5.142;2023-03-22T04:30:04;100726.63;;;8.63;100.00
67840;BME280;54636;51.684;5.142;2023-03-22T04:32:29;100715.78;;;8.63;100.00
67840;BME280;54636;51.684;5.142;2023-03-22T04:35:03;100712.59;;;8.65;100.00
67840;BME280;54636;51.684;5.142;2023-03-22T04:37:29;100685.81;;;8.52;100.00
67840;BME280;54636;51.684;5.142;2023-03-22T04:39:58;100717.91;;;8.74;100.00
67840;BME280;54636;51.684;5.142;2023-03-22T04:42:24;100719.59;;;8.86;100.00
67840;BME280;54636;51.684;5.142;2023-03-22T04:44:50;100712.59;;;8.79;100.00
67840;BME280;54636;51.684;5.142;2023-03-22T04:47:15;100704.19;;;8.77;100.00
67840;BME280;54636;51.684;5.142;2023-03-22T04:49:42;100700.25;;;8.78;100.00
67840;BME280;54636;51.684;5.142;2023-03-22T04:52:07;100706.22;;;8.82;100.00
67840;BME280;54636;51.684;5.142;2023-03-22T04:54:33;100705.38;;;8.91;100.00
67840;BME280;54636;51.684;5.142;2023-03-22T04:56:58;100687.47;;;8.79;100.00
67840;BME280;54636;51.684;5.142;2023-03-22T04:59:25;100698.81;;;8.98;100.00
67840;BME280;54636;51.684;5.142;2023-03-22T05:01:50;100699.22;;;8.90;100.00
67840;BME280;54636;51.684;5.142;2023-03-22T05:04:16;100695.56;;;8.94;100.00
67840;BME280;54636;51.684;5.142;2023-03-22T05:06:42;100684.44;;;8.91;100.00
67840;BME280;54636;51.684;5.142;2023-03-22T05:09:09;100696.41;;;8.85;100.00
67840;BME280;54636;51.684;5.142;2023-03-22T05:11:35;100698.53;;;8.96;100.00
67840;BME280;54636;51.684;5.142;2023-03-22T05:14:01;100693.03;;;8.90;100.00
67840;BME280;54636;51.684;5.142;2023-03-22T05:16:26;100702.13;;;8.87;100.00
67840;BME280;54636;51.684;5.142;2023-03-22T05:18:51;100700.47;;;8.75;100.00
67840;BME280;54636;51.684;5.142;2023-03-22T05:21:22;100701.16;;;8.90;100.00
67840;BME280;54636;51.684;5.142;2023-03-22T05:23:54;100691.66;;;8.80;100.00
67840;BME280;54636;51.684;5.142;2023-03-22T05:26:20;100706.16;;;8.77;100.00
67840;BME280;54636;51.684;5.142;2023-03-22T05:28:49;100687.66;;;8.75;100.00
67840;BME280;54636;51.684;5.142;2023-03-22T05:31:16;100699.50;;;8.78;100.00
67840;BME280;54636;51.684;5.142;2023-03-22T05:33:42;100690.44;;;8.81;100.00
67840;BME280;54636;51.684;5.142;2023-03-22T05:36:08;100688.03;;;8.83;100.00
67840;BME280;54636;51.684;5.142;2023-03-22T05:38:35;100669.91;;;8.74;100.00
67840;BME280;54636;51.684;5.142;2023-03-22T05:41:01;100669.03;;;8.48;100.00
67840;BME280;54636;51.684;5.142;2023-03-22T05:43:26;100674.16;;;8.46;100.00
67840;BME280;54636;51.684;5.142;2023-03-22T05:45:51;100687.22;;;8.47;100.00
67840;BME280;54636;51.684;5.142;2023-03-22T05:48:17;100681.25;;;8.58;100.00
67840;BME280;54636;51.684;5.142;2023-03-22T05:50:42;100680.31;;;8.61;100.00
67840;BME280;54636;51.684;5.142;2023-03-22T05:53:08;100682.75;;;8.59;100.00
67840;BME280;54636;51.684;5.142;2023-03-22T05:55:33;100680.78;;;8.59;100.00
67840;BME280;54636;51.684;5.142;2023-03-22T05:57:59;100679.91;;;8.68;100.00
67840;BME280;54636;51.684;5.142;2023-03-22T06:00:26;100676.09;;;8.60;100.00
67840;BME280;54636;51.684;5.142;2023-03-22T06:02:57;100644.88;;;8.44;100.00
67840;BME280;54636;51.684;5.142;2023-03-22T06:05:28;100681.03;;;8.76;100.00
67840;BME280;54636;51.684;5.142;2023-03-22T06:07:54;100668.16;;;8.71;100.00
67840;BME280;54636;51.684;5.142;2023-03-22T06:10:20;100672.44;;;8.78;100.00
67840;BME280;54636;51.684;5.142;2023-03-22T06:12:45;100689.44;;;8.78;100.00
67840;BME280;54636;51.684;5.142;2023-03-22T06:15:11;100691.41;;;8.78;100.00
67840;BME280;54636;51.684;5.142;2023-03-22T06:17:36;100650.63;;;8.52;100.00
67840;BME280;54636;51.684;5.142;2023-03-22T06:20:03;100682.56;;;8.98;100.00
67840;BME280;54636;51.684;5.142;2023-03-22T06:22:36;100675.84;;;8.93;100.00
67840;BME280;54636;51.684;5.142;2023-03-22T06:25:02;100694.03;;;9.07;100.00
67840;BME280;54636;51.684;5.142;2023-03-22T06:27:28;100683.47;;;9.09;100.00
67840;BME280;54636;51.684;5.142;2023-03-22T06:29:54;100671.72;;;9.18;100.00
67840;BME280;54636;51.684;5.142;2023-03-22T06:32:20;100690.91;;;9.35;100.00
67840;BME280;54636;51.684;5.142;2023-03-22T06:34:50;100679.38;;;9.40;100.00
67840;BME280;54636;51.684;5.142;2023-03-22T06:37:15;100681.22;;;9.48;100.00
67840;BME280;54636;51.684;5.142;2023-03-22T06:39:41;100662.31;;;9.54;100.00
67840;BME280;54636;51.684;5.142;2023-03-22T06:42:07;100648.88;;;9.65;100.00
67840;BME280;54636;51.684;5.142;2023-03-22T06:44:32;100647.72;;;9.77;100.00
67840;BME280;54636;51.684;5.142;2023-03-22T06:46:58;100673.75;;;10.15;100.00
67840;BME280;54636;51.684;5.142;2023-03-22T06:49:23;100685.53;;;10.33;100.00
67840;BME280;54636;51.684;5.142;2023-03-22T06:51:49;100685.81;;;10.40;100.00
67840;BME280;54636;51.684;5.142;2023-03-22T06:54:14;100699.53;;;10.57;100.00
67840;BME280;54636;51.684;5.142;2023-03-22T06:56:41;100704.66;;;10.49;100.00
67840;BME280;54636;51.684;5.142;2023-03-22T06:59:06;100688.78;;;10.42;100.00
67840;BME280;54636;51.684;5.142;2023-03-22T07:01:32;100685.06;;;10.34;100.00
67840;BME280;54636;51.684;5.142;2023-03-22T07:03:57;100681.22;;;10.20;100.00
67840;BME280;54636;51.684;5.142;2023-03-22T07:06:23;100699.31;;;10.29;100.00
67840;BME280;54636;51.684;5.142;2023-03-22T07:08:49;100683.34;;;10.11;100.00
67840;BME280;54636;51.684;5.142;2023-03-22T07:11:14;100693.31;;;10.19;100.00
67840;BME280;54636;51.684;5.142;2023-03-22T07:13:40;100699.09;;;10.33;100.00
67840;BME280;54636;51.684;5.142;2023-03-22T07:16:06;100680.91;;;10.39;100.00
67840;BME280;54636;51.684;5.142;2023-03-22T07:18:31;100675.22;;;10.42;100.00
67840;BME280;54636;51.684;5.142;2023-03-22T07:20:57;100660.31;;;10.27;99.98
67840;BME280;54636;51.684;5.142;2023-03-22T07:23:22;100694.06;;;10.51;100.00
67840;BME280;54636;51.684;5.142;2023-03-22T07:25:47;100686.13;;;10.48;100.00
67840;BME280;54636;51.684;5.142;2023-03-22T07:28:14;100699.38;;;10.72;99.60
67840;BME280;54636;51.684;5.142;2023-03-22T07:30:40;100697.78;;;10.54;100.00
67840;BME280;54636;51.684;5.142;2023-03-22T07:33:07;100687.69;;;10.60;97.89
67840;BME280;54636;51.684;5.142;2023-03-22T07:35:34;100694.44;;;10.70;98.88
67840;BME280;54636;51.684;5.142;2023-03-22T07:38:01;100703.84;;;10.75;98.95
67840;BME280;54636;51.684;5.142;2023-03-22T07:40:27;100689.53;;;10.74;98.35
67840;BME280;54636;51.684;5.142;2023-03-22T07:42:52;100698.56;;;10.97;97.14
67840;BME280;54636;51.684;5.142;2023-03-22T07:45:18;100684.72;;;10.95;97.12
67840;BME280;54636;51.684;5.142;2023-03-22T07:47:44;100686.25;;;11.02;96.14
67840;BME280;54636;51.684;5.142;2023-03-22T07:50:10;100700.13;;;11.15;96.46
67840;BME280;54636;51.684;5.142;2023-03-22T07:52:36;100704.16;;;11.31;94.99
67840;BME280;54636;51.684;5.142;2023-03-22T07:55:02;100711.09;;;11.37;93.43
67840;BME280;54636;51.684;5.142;2023-03-22T07:57:28;100694.03;;;11.31;94.03
67840;BME280;54636;51.684;5.142;2023-03-22T07:59:53;100702.72;;;11.41;92.49
67840;BME280;54636;51.684;5.142;2023-03-22T08:02:18;100694.47;;;11.24;93.54
67840;BME280;54636;51.684;5.142;2023-03-22T08:04:44;100705.16;;;11.33;92.64
67840;BME280;54636;51.684;5.142;2023-03-22T08:07:10;100699.72;;;11.33;92.80
67840;BME280;54636;51.684;5.142;2023-03-22T08:09:36;100682.94;;;11.40;92.92
67840;BME280;54636;51.684;5.142;2023-03-22T08:12:02;100709.00;;;11.64;90.20
67840;BME280;54636;51.684;5.142;2023-03-22T08:14:27;100713.22;;;11.76;90.00
67840;BME280;54636;51.684;5.142;2023-03-22T08:16:52;100702.38;;;11.81;90.32
67840;BME280;54636;51.684;5.142;2023-03-22T08:19:18;100671.66;;;11.75;88.84
67840;BME280;54636;51.684;5.142;2023-03-22T08:21:43;100699.22;;;12.11;87.90
67840;BME280;54636;51.684;5.142;2023-03-22T08:24:08;100694.78;;;12.25;87.78
67840;BME280;54636;51.684;5.142;2023-03-22T08:26:34;100682.88;;;12.16;86.02
67840;BME280;54636;51.684;5.142;2023-03-22T08:29:00;100685.38;;;12.14;86.35
67840;BME280;54636;51.684;5.142;2023-03-22T08:31:25;100691.81;;;12.23;85.51
67840;BME280;54636;51.684;5.142;2023-03-22T08:33:51;100692.31;;;12.27;85.48
67840;BME280;54636;51.684;5.142;2023-03-22T08:36:20;100680.16;;;12.28;86.42
67840;BME280;54636;51.684;5.142;2023-03-22T08:38:47;100694.50;;;12.39;84.64
67840;BME280;54636;51.684;5.142;2023-03-22T08:41:13;100677.66;;;12.35;84.59
67840;BME280;54636;51.684;5.142;2023-03-22T08:43:40;100694.53;;;12.34;84.63
67840;BME280;54636;51.684;5.142;2023-03-22T08:46:05;100696.75;;;12.46;84.34
67840;BME280;54636;51.684;5.142;2023-03-22T08:48:31;100687.59;;;12.33;83.28
67840;BME280;54636;51.684;5.142;2023-03-22T08:50:56;100694.53;;;12.28;83.63
67840;BME280;54636;51.684;5.142;2023-03-22T08:53:22;100686.34;;;12.39;83.69
67840;BME280;54636;51.684;5.142;2023-03-22T08:55:48;100673.22;;;12.38;83.28
67840;BME280;54636;51.684;5.142;2023-03-22T08:58:14;100695.75;;;12.55;82.90
67840;BME280;54636;51.684;5.142;2023-03-22T09:00:44;100682.63;;;12.37;82.40
67840;BME280;54636;51.684;5.142;2023-03-22T09:03:10;100686.34;;;12.45;83.60
67840;BME280;54636;51.684;5.142;2023-03-22T09:05:35;100674.94;;;12.35;81.53
67840;BME280;54636;51.684;5.142;2023-03-22T09:08:01;100673.22;;;12.15;82.65
67840;BME280;54636;51.684;5.142;2023-03-22T09:10:27;100698.25;;;12.25;83.68
67840;BME280;54636;51.684;5.142;2023-03-22T09:12:52;100668.28;;;12.14;83.52
67840;BME280;54636;51.684;5.142;2023-03-22T09:15:18;100686.34;;;12.23;84.04
67840;BME280;54636;51.684;5.142;2023-03-22T09:17:43;100668.78;;;12.12;83.23
67840;BME280;54636;51.684;5.142;2023-03-22T09:20:09;100657.88;;;12.01;83.94
67840;BME280;54636;51.684;5.142;2023-03-22T09:22:34;100675.22;;;12.15;83.72
67840;BME280;54636;51.684;5.142;2023-03-22T09:25:00;100640.06;;;12.00;82.92
67840;BME280;54636;51.684;5.142;2023-03-22T09:27:25;100680.91;;;12.17;83.55
67840;BME280;54636;51.684;5.142;2023-03-22T09:29:51;100683.38;;;12.20;84.13
67840;BME280;54636;51.684;5.142;2023-03-22T09:32:16;100668.03;;;12.12;84.11
67840;BME280;54636;51.684;5.142;2023-03-22T09:34:42;100673.25;;;12.21;83.62
67840;BME280;54636;51.684;5.142;2023-03-22T09:37:08;100688.81;;;12.43;82.51
67840;BME280;54636;51.684;5.142;2023-03-22T09:39:38;100676.72;;;12.33;83.05
67840;BME280;54636;51.684;5.142;2023-03-22T09:42:06;100678.44;;;12.25;83.96
67840;BME280;54636;51.684;5.142;2023-03-22T09:44:44;100676.22;;;12.34;83.26
67840;BME280;54636;51.684;5.142;2023-03-22T09:47:29;100664.56;;;12.34;83.29
67840;BME280;54636;51.684;5.142;2023-03-22T09:52:39;100657.63;;;12.16;83.59
67840;BME280;54636;51.684;5.142;2023-03-22T09:55:16;100663.34;;;12.18;83.72
67840;BME280;54636;51.684;5.142;2023-03-22T09:57:43;100668.53;;;12.05;84.20
67840;BME280;54636;51.684;5.142;2023-03-22T10:00:17;100680.41;;;12.07;83.82
67840;BME280;54636;51.684;5.142;2023-03-22T10:05:37;100698.22;;;12.08;84.90
67840;BME280;54636;51.684;5.142;2023-03-22T10:14:30;100670.75;;;12.12;88.07
67840;BME280;54636;51.684;5.142;2023-03-22T10:16:56;100687.53;;;11.82;93.73
67840;BME280;54636;51.684;5.142;2023-03-22T10:19:35;100693.44;;;11.70;96.06
67840;BME280;54636;51.684;5.142;2023-03-22T10:22:05;100686.50;;;11.74;96.13
67840;BME280;54636;51.684;5.142;2023-03-22T10:24:37;100687.22;;;11.58;98.53
67840;BME280;54636;51.684;5.142;2023-03-22T10:27:13;100677.75;;;11.42;98.21
67840;BME280;54636;51.684;5.142;2023-03-22T10:29:43;100694.09;;;11.48;100.00
67840;BME280;54636;51.684;5.142;2023-03-22T10:32:17;100687.97;;;11.59;100.00
67840;BME280;54636;51.684;5.142;2023-03-22T10:34:42;100636.91;;;11.26;100.00
67840;BME280;54636;51.684;5.142;2023-03-22T10:37:35;100680.00;;;11.44;100.00
67840;BME280;54636;51.684;5.142;2023-03-22T10:40:04;100685.16;;;11.42;100.00
67840;BME280;54636;51.684;5.142;2023-03-22T10:42:31;100690.19;;;11.60;100.00
67840;BME280;54636;51.684;5.142;2023-03-22T10:45:06;100689.44;;;11.60;100.00
67840;BME280;54636;51.684;5.142;2023-03-22T10:47:44;100689.69;;;11.73;100.00
67840;BME280;54636;51.684;5.142;2023-03-22T10:50:25;100675.84;;;11.71;100.00
67840;BME280;54636;51.684;5.142;2023-03-22T10:53:15;100678.06;;;11.72;100.00
67840;BME280;54636;51.684;5.142;2023-03-22T10:55:43;100674.88;;;11.74;100.00
67840;BME280;54636;51.684;5.142;2023-03-22T10:58:15;100663.25;;;11.68;100.00
67840;BME280;54636;51.684;5.142;2023-03-22T11:00:49;100674.44;;;11.92;100.00
67840;BME280;54636;51.684;5.142;2023-03-22T11:06:00;100650.44;;;11.96;100.00
67840;BME280;54636;51.684;5.142;2023-03-22T11:08:26;100665.03;;;12.43;100.00
67840;BME280;54636;51.684;5.142;2023-03-22T11:10:51;100661.31;;;12.41;99.81
67840;BME280;54636;51.684;5.142;2023-03-22T11:13:19;100659.34;;;12.52;100.00
67840;BME280;54636;51.684;5.142;2023-03-22T11:15:54;100664.50;;;12.78;98.90
67840;BME280;54636;51.684;5.142;2023-03-22T11:18:23;100659.03;;;12.84;97.87
67840;BME280;54636;51.684;5.142;2023-03-22T11:20:56;100660.78;;;12.87;97.43
67840;BME280;54636;51.684;5.142;2023-03-22T11:23:23;100659.75;;;12.96;97.26
67840;BME280;54636;51.684;5.142;2023-03-22T11:25:49;100670.41;;;12.99;96.83
67840;BME280;54636;51.684;5.142;2023-03-22T11:28:21;100674.09;;;13.02;94.89
67840;BME280;54636;51.684;5.142;2023-03-22T11:31:19;100670.94;;;12.92;96.05
67840;BME280;54636;51.684;5.142;2023-03-22T11:33:56;100671.41;;;12.96;95.68
67840;BME280;54636;51.684;5.142;2023-03-22T11:36:22;100666.97;;;12.82;93.84
67840;BME280;54636;51.684;5.142;2023-03-22T11:38:55;100671.44;;;12.74;95.07
67840;BME280;54636;51.684;5.142;2023-03-22T11:41:30;100659.56;;;12.66;94.04
67840;BME280;54636;51.684;5.142;2023-03-22T11:44:00;100660.09;;;12.42;95.87
67840;BME280;54636;51.684;5.142;2023-03-22T11:46:27;100656.88;;;12.43;94.95
67840;BME280;54636;51.684;5.142;2023-03-22T11:48:57;100652.91;;;12.50;94.50
67840;BME280;54636;51.684;5.142;2023-03-22T11:51:29;100650.69;;;12.48;94.78
67840;BME280;54636;51.684;5.142;2023-03-22T11:56:47;100647.19;;;12.59;93.67
67840;BME280;54636;51.684;5.142;2023-03-22T11:59:23;100632.09;;;12.52;93.89
67840;BME280;54636;51.684;5.142;2023-03-22T12:02:03;100667.50;;;12.58;93.40
67840;BME280;54636;51.684;5.142;2023-03-22T12:04:33;100669.75;;;12.48;92.91
67840;BME280;54636;51.684;5.142;2023-03-22T12:07:03;100656.13;;;12.54;91.99
67840;BME280;54636;51.684;5.142;2023-03-22T12:09:43;100672.47;;;12.43;92.64
67840;BME280;54636;51.684;5.142;2023-03-22T12:12:18;100663.81;;;12.44;93.45
67840;BME280;54636;51.684;5.142;2023-03-22T12:14:56;100659.34;;;12.47;92.57
67840;BME280;54636;51.684;5.142;2023-03-22T12:22:40;100651.94;;;12.25;93.28
67840;BME280;54636;51.684;5.142;2023-03-22T12:25:28;100676.44;;;12.36;93.54
67840;BME280;54636;51.684;5.142;2023-03-22T12:27:59;100663.81;;;12.39;93.18
67840;BME280;54636;51.684;5.142;2023-03-22T12:30:27;100680.41;;;12.46;93.26
67840;BME280;54636;51.684;5.142;2023-03-22T12:33:05;100663.31;;;12.46;91.87
67840;BME280;54636;51.684;5.142;2023-03-22T12:35:33;100667.56;;;12.30;92.91
67840;BME280;54636;51.684;5.142;2023-03-22T12:38:48;100659.88;;;12.23;93.51
67840;BME280;54636;51.684;5.142;2023-03-22T12:40:56;100663.59;;;12.31;91.29
67840;BME280;54636;51.684;5.142;2023-03-22T12:46:17;100662.59;;;12.17;93.69
67840;BME280;54636;51.684;5.142;2023-03-22T12:48:54;100651.94;;;12.19;92.92
67840;BME280;54636;51.684;5.142;2023-03-22T12:51:26;100645.25;;;12.15;93.03
67840;BME280;54636;51.684;5.142;2023-03-22T12:53:54;100638.56;;;12.10;93.17
67840;BME280;54636;51.684;5.142;2023-03-22T12:56:25;100645.03;;;12.24;92.98
67840;BME280;54636;51.684;5.142;2023-03-22T12:58:54;100641.31;;;12.33;92.76
67840;BME280;54636;51.684;5.142;2023-03-22T13:01:28;100617.78;;;12.07;92.27
67840;BME280;54636;51.684;5.142;2023-03-22T13:03:55;100630.91;;;12.14;92.57
67840;BME280;54636;51.684;5.142;2023-03-22T13:11:26;100652.94;;;12.33;93.33
67840;BME280;54636;51.684;5.142;2023-03-22T13:13:52;100657.41;;;12.25;94.17
67840;BME280;54636;51.684;5.142;2023-03-22T13:16:19;100659.13;;;12.34;93.71
67840;BME280;54636;51.684;5.142;2023-03-22T13:21:20;100653.94;;;12.25;95.23
67840;BME280;54636;51.684;5.142;2023-03-22T13:27:05;100633.88;;;12.11;94.87
67840;BME280;54636;51.684;5.142;2023-03-22T13:29:32;100650.97;;;12.28;95.10
67840;BME280;54636;51.684;5.142;2023-03-22T13:32:02;100637.84;;;12.15;95.63
67840;BME280;54636;51.684;5.142;2023-03-22T13:34:38;100650.69;;;12.37;94.43
67840;BME280;54636;51.684;5.142;2023-03-22T13:37:15;100660.13;;;12.25;94.94
67840;BME280;54636;51.684;5.142;2023-03-22T13:39:49;100662.34;;;12.27;95.47
67840;BME280;54636;51.684;5.142;2023-03-22T13:42:20;100639.06;;;12.03;96.44
67840;BME280;54636;51.684;5.142;2023-03-22T13:44:54;100651.47;;;12.21;96.51
67840;BME280;54636;51.684;5.142;2023-03-22T13:47:43;100648.47;;;12.30;96.01
67840;BME280;54636;51.684;5.142;2023-03-22T13:50:20;100650.47;;;12.30;95.79
67840;BME280;54636;51.684;5.142;2023-03-22T13:52:56;100646.50;;;12.31;96.16
67840;BME280;54636;51.684;5.142;2023-03-22T13:58:56;100648.44;;;12.41;96.33
67840;BME280;54636;51.684;5.142;2023-03-22T14:01:33;100633.38;;;12.29;96.72
67840;BME280;54636;51.684;5.142;2023-03-22T14:04:05;100625.97;;;12.30;96.97
67840;BME280;54636;51.684;5.142;2023-03-22T14:06:34;100637.06;;;12.48;96.11
67840;BME280;54636;51.684;5.142;2023-03-22T14:09:12;100638.03;;;12.45;97.61
67840;BME280;54636;51.684;5.142;2023-03-22T14:11:54;100622.94;;;12.50;97.87
67840;BME280;54636;51.684;5.142;2023-03-22T14:14:24;100591.28;;;12.30;98.71
67840;BME280;54636;51.684;5.142;2023-03-22T14:16:59;100618.72;;;12.60;98.95